createdAt,value
2022-12-01T00:00:05.821Z,4
2022-12-01T00:01:08.914Z,4
2022-12-01T00:02:13.003Z,4
2022-12-01T00:03:17.497Z,4.1
2022-12-01T00:04:21.921Z,4
2022-12-01T00:05:24.792Z,4
2022-12-01T00:06:28.081Z,4
2022-12-01T00:07:30.839Z,4
2022-12-01T00:08:34.013Z,4
2022-12-01T00:09:37.122Z,4
2022-12-01T00:10:39.577Z,4.1
2022-12-01T00:11:42.659Z,4
2022-12-01T00:12:45.439Z,4
2022-12-01T00:13:47.682Z,4
2022-12-01T00:14:50.394Z,4
2022-12-01T00:15:53.763Z,4
2022-12-01T00:16:57.765Z,4
2022-12-01T00:18:00.648Z,4
2022-12-01T00:19:03.739Z,4
2022-12-01T00:20:07.817Z,4
2022-12-01T00:21:10.261Z,4
2022-12-01T00:22:14.105Z,4.1
2022-12-01T00:23:16.810Z,4
2022-12-01T00:24:19.770Z,4
2022-12-01T00:25:23.280Z,4
2022-12-01T00:26:26.529Z,4
2022-12-01T00:27:29.665Z,4
2022-12-01T00:28:32.825Z,4
2022-12-01T00:29:35.981Z,4
2022-12-01T00:30:39.097Z,4
2022-12-01T00:31:41.814Z,4
2022-12-01T00:32:44.603Z,4
2022-12-01T00:33:47.114Z,4
2022-12-01T00:34:50.267Z,4
2022-12-01T00:35:54.022Z,4
2022-12-01T00:36:57.628Z,4
2022-12-01T00:38:00.492Z,4
2022-12-01T00:39:02.915Z,4
2022-12-01T00:40:06.010Z,4
2022-12-01T00:41:08.986Z,4
2022-12-01T00:42:14.869Z,4
2022-12-01T00:43:17.645Z,4
2022-12-01T00:44:20.725Z,4
2022-12-01T00:45:23.425Z,4
2022-12-01T00:46:26.698Z,4
2022-12-01T00:47:29.876Z,4
2022-12-01T00:48:32.370Z,4
2022-12-01T00:49:35.221Z,4
2022-12-01T00:50:38.334Z,4
2022-12-01T00:51:42.069Z,4.1
2022-12-01T00:52:45.106Z,4.1
2022-12-01T00:53:48.160Z,4.1
2022-12-01T00:54:51.478Z,4.1
2022-12-01T00:55:54.252Z,4.1
2022-12-01T00:56:57.652Z,4.1
2022-12-01T00:58:00.588Z,4.1
2022-12-01T00:59:03.661Z,4.1
2022-12-01T01:00:06.167Z,4.1
2022-12-01T01:01:09.253Z,4.1
2022-12-01T01:02:12.459Z,4.1
2022-12-01T01:03:14.929Z,4
2022-12-01T01:04:18.263Z,4
2022-12-01T01:05:20.195Z,4
2022-12-01T01:06:22.983Z,4
2022-12-01T01:07:27.143Z,4
2022-12-01T01:08:30.506Z,4
2022-12-01T01:09:33.563Z,3.9
2022-12-01T01:10:35.705Z,3.9
2022-12-01T01:11:39.037Z,3.9
2022-12-01T01:12:41.742Z,3.9
2022-12-01T01:13:43.879Z,3.9
2022-12-01T01:14:46.388Z,3.9
2022-12-01T01:15:49.172Z,3.9
2022-12-01T01:16:53.274Z,3.9
2022-12-01T01:17:56.344Z,3.9
2022-12-01T01:18:59.163Z,4
2022-12-01T01:20:01.931Z,4
2022-12-01T01:21:04.981Z,4
2022-12-01T01:22:07.766Z,4
2022-12-01T01:23:11.359Z,4
2022-12-01T01:24:14.064Z,4
2022-12-01T01:25:17.415Z,4
2022-12-01T01:26:20.404Z,4
2022-12-01T01:27:23.461Z,4
2022-12-01T01:28:26.932Z,4
2022-12-01T01:29:29.433Z,4
2022-12-01T01:30:31.935Z,4
2022-12-01T01:31:34.728Z,4
2022-12-01T01:32:38.328Z,4
2022-12-01T01:33:41.856Z,4
2022-12-01T01:34:44.300Z,4
2022-12-01T01:35:47.360Z,4
2022-12-01T01:36:50.414Z,4
2022-12-01T01:37:53.191Z,4
2022-12-01T01:38:56.675Z,4
2022-12-01T01:39:59.377Z,4
2022-12-01T01:41:01.947Z,3.9
2022-12-01T01:42:05.654Z,4
2022-12-01T01:43:08.983Z,4
2022-12-01T01:44:12.040Z,4
2022-12-01T01:45:14.464Z,4
2022-12-01T01:46:18.613Z,4
2022-12-01T01:47:22.144Z,3.9
2022-12-01T01:48:24.689Z,3.9
2022-12-01T01:49:27.459Z,3.9
2022-12-01T01:50:30.731Z,3.9
2022-12-01T01:51:33.707Z,3.9
2022-12-01T01:52:36.764Z,3.9
2022-12-01T01:53:39.412Z,3.9
2022-12-01T01:54:43.164Z,3.9
2022-12-01T01:55:45.665Z,3.9
2022-12-01T01:56:48.363Z,3.9
2022-12-01T01:57:51.605Z,3.9
2022-12-01T01:58:54.749Z,3.9
2022-12-01T01:59:57.829Z,3.9
2022-12-01T02:01:00.640Z,3.9
2022-12-01T02:02:04.183Z,3.9
2022-12-01T02:03:07.758Z,3.9
2022-12-01T02:04:10.463Z,3.9
2022-12-01T02:05:13.434Z,3.9
2022-12-01T02:06:15.760Z,3.9
2022-12-01T02:07:18.261Z,3.9
2022-12-01T02:08:21.075Z,3.9
2022-12-01T02:09:24.131Z,3.9
2022-12-01T02:10:27.606Z,3.9
2022-12-01T02:11:30.188Z,3.9
2022-12-01T02:12:33.183Z,3.9
2022-12-01T02:13:35.610Z,3.9
2022-12-01T02:14:38.096Z,3.8
2022-12-01T02:15:40.790Z,3.8
2022-12-01T02:16:44.403Z,3.8
2022-12-01T02:17:47.495Z,3.8
2022-12-01T02:18:50.658Z,3.8
2022-12-01T02:19:53.790Z,3.8
2022-12-01T02:20:56.358Z,3.9
2022-12-01T02:21:59.520Z,3.8
2022-12-01T02:23:02.237Z,3.8
2022-12-01T02:24:05.286Z,3.8
2022-12-01T02:25:07.931Z,3.7
2022-12-01T02:26:11.685Z,3.7
2022-12-01T02:27:14.664Z,3.7
2022-12-01T02:28:17.854Z,3.7
2022-12-01T02:29:21.101Z,3.7
2022-12-01T02:30:23.918Z,3.7
2022-12-01T02:31:26.864Z,3.7
2022-12-01T02:32:29.566Z,3.7
2022-12-01T02:33:32.414Z,3.7
2022-12-01T02:34:36.125Z,3.7
2022-12-01T02:35:39.316Z,3.7
2022-12-01T02:36:41.739Z,3.7
2022-12-01T02:37:45.026Z,3.8
2022-12-01T02:38:47.868Z,3.8
2022-12-01T02:39:51.935Z,3.8
2022-12-01T02:40:54.771Z,3.7
2022-12-01T02:41:58.607Z,3.7
2022-12-01T02:43:01.377Z,3.7
2022-12-01T02:44:03.880Z,3.7
2022-12-01T02:45:06.572Z,3.7
2022-12-01T02:46:09.621Z,3.7
2022-12-01T02:47:12.727Z,3.7
2022-12-01T02:48:14.949Z,3.7
2022-12-01T02:49:17.645Z,3.7
2022-12-01T02:50:20.335Z,3.7
2022-12-01T02:51:23.112Z,3.7
2022-12-01T02:52:25.527Z,3.7
2022-12-01T02:53:28.629Z,3.7
2022-12-01T02:54:31.127Z,3.7
2022-12-01T02:55:34.116Z,3.7
2022-12-01T02:56:37.163Z,3.7
2022-12-01T02:57:40.981Z,3.7
2022-12-01T02:58:44.180Z,3.7
2022-12-01T02:59:48.753Z,3.7
2022-12-01T03:00:52.514Z,3.7
2022-12-01T03:01:55.829Z,3.7
2022-12-01T03:02:58.428Z,3.7
2022-12-01T03:04:02.011Z,3.7
2022-12-01T03:05:04.518Z,3.7
2022-12-01T03:06:07.296Z,3.7
2022-12-01T03:07:11.016Z,3.7
2022-12-01T03:08:14.162Z,3.7
2022-12-01T03:09:17.310Z,3.6
2022-12-01T03:10:20.288Z,3.6
2022-12-01T03:11:22.964Z,3.6
2022-12-01T03:12:26.159Z,3.6
2022-12-01T03:13:30.189Z,3.6
2022-12-01T03:14:33.193Z,3.6
2022-12-01T03:15:36.422Z,3.6
2022-12-01T03:16:39.004Z,3.6
2022-12-01T03:17:41.850Z,3.6
2022-12-01T03:18:44.425Z,3.6
2022-12-01T03:19:49.261Z,3.6
2022-12-01T03:20:53.242Z,3.6
2022-12-01T03:21:56.022Z,3.6
2022-12-01T03:22:59.413Z,3.6
2022-12-01T03:24:02.735Z,3.6
2022-12-01T03:25:05.529Z,3.6
2022-12-01T03:26:08.884Z,3.6
2022-12-01T03:27:12.209Z,3.6
2022-12-01T03:28:24.332Z,3.6
2022-12-01T03:29:27.831Z,3.6
2022-12-01T03:30:31.183Z,3.6
2022-12-01T03:31:34.786Z,3.5
2022-12-01T03:32:37.741Z,3.5
2022-12-01T03:33:40.246Z,3.5
2022-12-01T03:34:43.502Z,3.4
2022-12-01T03:35:46.549Z,3.3
2022-12-01T03:36:49.535Z,3.3
2022-12-01T03:37:52.307Z,3.3
2022-12-01T03:38:54.782Z,3.3
2022-12-01T03:40:03.178Z,3.3
2022-12-01T03:41:05.894Z,3.3
2022-12-01T03:42:09.311Z,3.3
2022-12-01T03:43:12.296Z,3.2
2022-12-01T03:44:15.705Z,3.2
2022-12-01T03:45:19.799Z,3.2
2022-12-01T03:46:23.189Z,3.2
2022-12-01T03:47:26.467Z,3.2
2022-12-01T03:48:29.547Z,3.2
2022-12-01T03:49:33.262Z,3.2
2022-12-01T03:50:35.869Z,3.2
2022-12-01T03:51:39.274Z,3.2
2022-12-01T03:52:42.326Z,3.2
2022-12-01T03:53:44.831Z,3.2
2022-12-01T03:54:47.682Z,3.2
2022-12-01T03:55:50.380Z,3.2
2022-12-01T03:56:53.650Z,3.2
2022-12-01T03:57:57.382Z,3.2
2022-12-01T03:59:00.525Z,3.2
2022-12-01T04:00:03.868Z,3.2
2022-12-01T04:01:07.970Z,3.2
2022-12-01T04:02:11.697Z,3.2
2022-12-01T04:03:15.838Z,3.2
2022-12-01T04:04:19.361Z,3.2
2022-12-01T04:05:26.855Z,3.2
2022-12-01T04:06:30.558Z,3.2
2022-12-01T04:07:34.526Z,3.3
2022-12-01T04:08:37.635Z,3.3
2022-12-01T04:09:39.854Z,3.3
2022-12-01T04:10:42.923Z,3.3
2022-12-01T04:11:46.630Z,3.3
2022-12-01T04:12:49.464Z,3.3
2022-12-01T04:13:52.507Z,3.2
2022-12-01T04:14:56.227Z,3.2
2022-12-01T04:15:59.848Z,3.2
2022-12-01T04:17:03.480Z,3.2
2022-12-01T04:18:06.535Z,3.2
2022-12-01T04:19:09.310Z,3.3
2022-12-01T04:20:12.013Z,3.3
2022-12-01T04:21:14.026Z,3.3
2022-12-01T04:22:16.887Z,3.3
2022-12-01T04:23:19.382Z,3.3
2022-12-01T04:24:22.149Z,3.3
2022-12-01T04:25:24.564Z,3.3
2022-12-01T04:26:27.996Z,3.2
2022-12-01T04:27:31.046Z,3.2
2022-12-01T04:28:33.909Z,3.2
2022-12-01T04:29:36.964Z,3.2
2022-12-01T04:30:39.930Z,3.2
2022-12-01T04:31:43.705Z,3.2
2022-12-01T04:32:47.852Z,3.2
2022-12-01T04:33:50.923Z,3.2
2022-12-01T04:34:54.043Z,3.1
2022-12-01T04:35:55.779Z,3
2022-12-01T04:36:58.195Z,3
2022-12-01T04:38:00.828Z,2.9
2022-12-01T04:39:03.893Z,2.9
2022-12-01T04:40:06.955Z,2.9
2022-12-01T04:41:09.718Z,2.9
2022-12-01T04:42:13.111Z,2.9
2022-12-01T04:43:15.671Z,2.9
2022-12-01T04:44:17.916Z,2.9
2022-12-01T04:45:20.759Z,2.9
2022-12-01T04:46:24.469Z,2.9
2022-12-01T04:47:28.024Z,2.9
2022-12-01T04:48:31.776Z,2.9
2022-12-01T04:49:34.656Z,2.8
2022-12-01T04:50:37.250Z,2.9
2022-12-01T04:51:40.109Z,2.8
2022-12-01T04:52:42.670Z,2.8
2022-12-01T04:53:45.685Z,2.8
2022-12-01T04:54:48.288Z,2.8
2022-12-01T04:55:51.642Z,2.8
2022-12-01T04:56:54.346Z,2.9
2022-12-01T04:57:57.819Z,2.9
2022-12-01T04:59:00.617Z,2.9
2022-12-01T05:00:03.403Z,2.9
2022-12-01T05:01:07.016Z,2.9
2022-12-01T05:02:10.882Z,2.9
2022-12-01T05:03:17.225Z,2.9
2022-12-01T05:04:20.697Z,2.9
2022-12-01T05:05:23.498Z,2.9
2022-12-01T05:06:26.199Z,2.9
2022-12-01T05:07:29.928Z,2.9
2022-12-01T05:08:33.006Z,2.9
2022-12-01T05:09:35.522Z,2.8
2022-12-01T05:10:38.303Z,2.8
2022-12-01T05:11:41.570Z,2.8
2022-12-01T05:12:45.172Z,2.8
2022-12-01T05:13:47.634Z,2.8
2022-12-01T05:14:50.453Z,2.8
2022-12-01T05:15:53.471Z,2.8
2022-12-01T05:16:55.791Z,2.8
2022-12-01T05:17:58.483Z,2.8
2022-12-01T05:19:02.175Z,2.8
2022-12-01T05:20:05.683Z,2.8
2022-12-01T05:21:08.738Z,2.7
2022-12-01T05:22:11.505Z,2.7
2022-12-01T05:23:18.599Z,2.7
2022-12-01T05:24:22.205Z,2.7
2022-12-01T05:25:25.185Z,2.7
2022-12-01T05:26:28.260Z,2.7
2022-12-01T05:27:31.969Z,2.7
2022-12-01T05:28:34.105Z,2.7
2022-12-01T05:29:37.824Z,2.7
2022-12-01T05:30:41.452Z,2.7
2022-12-01T05:31:45.344Z,2.7
2022-12-01T05:32:48.184Z,2.7
2022-12-01T05:33:51.099Z,2.7
2022-12-01T05:34:54.784Z,2.7
2022-12-01T05:35:58.333Z,2.7
2022-12-01T05:37:01.985Z,2.7
2022-12-01T05:38:09.826Z,2.7
2022-12-01T05:39:12.799Z,2.7
2022-12-01T05:40:15.573Z,2.7
2022-12-01T05:41:18.552Z,2.7
2022-12-01T05:42:21.073Z,2.7
2022-12-01T05:43:30.988Z,2.7
2022-12-01T05:44:34.063Z,2.7
2022-12-01T05:45:37.305Z,2.6
2022-12-01T05:46:39.996Z,2.6
2022-12-01T05:47:42.703Z,2.6
2022-12-01T05:48:45.273Z,2.6
2022-12-01T05:49:49.534Z,2.6
2022-12-01T05:50:52.594Z,2.5
2022-12-01T05:51:56.628Z,2.5
2022-12-01T05:52:59.981Z,2.5
2022-12-01T05:54:02.832Z,2.6
2022-12-01T05:55:05.882Z,2.5
2022-12-01T05:56:08.978Z,2.5
2022-12-01T05:57:12.024Z,2.5
2022-12-01T05:58:14.934Z,2.5
2022-12-01T05:59:17.428Z,2.5
2022-12-01T06:00:20.546Z,2.5
2022-12-01T06:01:23.878Z,2.5
2022-12-01T06:02:27.507Z,2.5
2022-12-01T06:03:30.039Z,2.6
2022-12-01T06:04:33.048Z,2.6
2022-12-01T06:05:35.474Z,2.5
2022-12-01T06:06:38.775Z,2.5
2022-12-01T06:07:42.650Z,2.5
2022-12-01T06:08:45.505Z,2.5
2022-12-01T06:09:50.638Z,2.5
2022-12-01T06:10:53.298Z,2.4
2022-12-01T06:11:56.704Z,2.4
2022-12-01T06:12:59.818Z,2.4
2022-12-01T06:14:02.579Z,2.4
2022-12-01T06:15:05.720Z,2.4
2022-12-01T06:16:08.515Z,2.4
2022-12-01T06:17:11.577Z,2.4
2022-12-01T06:18:14.971Z,2.4
2022-12-01T06:19:18.244Z,2.4
2022-12-01T06:20:21.652Z,2.4
2022-12-01T06:21:24.723Z,2.4
2022-12-01T06:22:27.929Z,2.4
2022-12-01T06:23:32.448Z,2.5
2022-12-01T06:24:35.429Z,2.5
2022-12-01T06:25:38.488Z,2.5
2022-12-01T06:26:41.198Z,2.5
2022-12-01T06:27:43.614Z,2.5
2022-12-01T06:28:46.363Z,2.5
2022-12-01T06:29:50.974Z,2.5
2022-12-01T06:31:04.562Z,2.5
2022-12-01T06:32:07.656Z,2.5
2022-12-01T06:33:10.464Z,2.5
2022-12-01T06:34:13.222Z,2.5
2022-12-01T06:35:16.035Z,2.5
2022-12-01T06:36:18.808Z,2.5
2022-12-01T06:37:22.135Z,2.5
2022-12-01T06:38:24.618Z,2.5
2022-12-01T06:39:28.147Z,2.6
2022-12-01T06:40:30.833Z,2.6
2022-12-01T06:41:33.940Z,2.6
2022-12-01T06:42:37.192Z,2.6
2022-12-01T06:43:40.238Z,2.6
2022-12-01T06:44:43.604Z,2.6
2022-12-01T06:45:47.168Z,2.7
2022-12-01T06:46:50.044Z,2.7
2022-12-01T06:47:52.768Z,2.7
2022-12-01T06:48:55.873Z,2.7
2022-12-01T06:49:58.350Z,2.7
2022-12-01T06:51:01.187Z,2.8
2022-12-01T06:52:03.875Z,2.8
2022-12-01T06:53:06.448Z,2.8
2022-12-01T06:54:09.211Z,2.8
2022-12-01T06:55:13.496Z,2.8
2022-12-01T06:56:17.638Z,2.8
2022-12-01T06:57:23.231Z,2.7
2022-12-01T06:58:27.305Z,2.7
2022-12-01T06:59:32.368Z,2.8
2022-12-01T07:00:36.173Z,2.7
2022-12-01T07:01:38.493Z,2.8
2022-12-01T07:02:41.726Z,2.8
2022-12-01T07:03:44.863Z,2.8
2022-12-01T07:04:47.713Z,2.8
2022-12-01T07:05:50.209Z,2.8
2022-12-01T07:06:53.475Z,2.8
2022-12-01T07:08:00.934Z,2.8
2022-12-01T07:09:04.144Z,2.8
2022-12-01T07:10:07.653Z,2.8
2022-12-01T07:11:11.480Z,2.8
2022-12-01T07:12:14.342Z,2.8
2022-12-01T07:13:18.049Z,2.8
2022-12-01T07:14:20.562Z,2.7
2022-12-01T07:15:23.812Z,2.7
2022-12-01T07:16:27.052Z,2.7
2022-12-01T07:17:30.886Z,2.7
2022-12-01T07:18:33.659Z,2.7
2022-12-01T07:19:36.368Z,2.7
2022-12-01T07:20:39.475Z,2.7
2022-12-01T07:21:42.796Z,2.7
2022-12-01T07:22:46.134Z,2.7
2022-12-01T07:23:48.919Z,2.6
2022-12-01T07:24:51.900Z,2.6
2022-12-01T07:25:54.755Z,2.6
2022-12-01T07:26:58.246Z,2.6
2022-12-01T07:28:01.156Z,2.6
2022-12-01T07:29:04.775Z,2.7
2022-12-01T07:30:07.548Z,2.6
2022-12-01T07:31:11.017Z,2.7
2022-12-01T07:32:14.230Z,2.7
2022-12-01T07:33:17.916Z,2.7
2022-12-01T07:34:20.970Z,2.7
2022-12-01T07:35:23.671Z,2.7
2022-12-01T07:36:27.167Z,2.7
2022-12-01T07:37:29.864Z,2.7
2022-12-01T07:38:33.683Z,2.6
2022-12-01T07:39:36.309Z,2.7
2022-12-01T07:40:39.443Z,2.7
2022-12-01T07:41:42.492Z,2.7
2022-12-01T07:42:46.242Z,2.7
2022-12-01T07:43:48.540Z,2.7
2022-12-01T07:44:51.248Z,2.6
2022-12-01T07:45:54.354Z,2.6
2022-12-01T07:46:57.110Z,2.7
2022-12-01T07:48:00.533Z,2.6
2022-12-01T07:49:03.041Z,2.7
2022-12-01T07:50:06.292Z,2.7
2022-12-01T07:51:09.449Z,2.7
2022-12-01T07:52:12.498Z,2.7
2022-12-01T07:53:14.990Z,2.7
2022-12-01T07:54:17.987Z,2.7
2022-12-01T07:55:20.506Z,2.7
2022-12-01T07:56:24.283Z,2.7
2022-12-01T07:57:27.353Z,2.7
2022-12-01T07:58:31.169Z,2.7
2022-12-01T07:59:33.860Z,2.7
2022-12-01T08:00:37.395Z,2.7
2022-12-01T08:01:46.468Z,2.6
2022-12-01T08:02:50.018Z,2.6
2022-12-01T08:03:53.951Z,2.6
2022-12-01T08:04:57.208Z,2.6
2022-12-01T08:06:00.442Z,2.6
2022-12-01T08:07:03.525Z,2.6
2022-12-01T08:08:06.926Z,2.6
2022-12-01T08:09:10.575Z,2.6
2022-12-01T08:10:14.319Z,2.6
2022-12-01T08:11:17.403Z,2.6
2022-12-01T08:12:20.372Z,2.6
2022-12-01T08:13:24.097Z,2.6
2022-12-01T08:14:28.151Z,2.6
2022-12-01T08:15:31.623Z,2.6
2022-12-01T08:16:34.707Z,2.5
2022-12-01T08:17:37.766Z,2.5
2022-12-01T08:18:40.723Z,2.5
2022-12-01T08:19:43.997Z,2.6
2022-12-01T08:20:47.339Z,2.5
2022-12-01T08:21:51.050Z,2.5
2022-12-01T08:22:54.151Z,2.5
2022-12-01T08:23:56.631Z,2.6
2022-12-01T08:24:59.764Z,2.6
2022-12-01T08:26:03.023Z,2.6
2022-12-01T08:27:06.449Z,2.5
2022-12-01T08:28:09.593Z,2.5
2022-12-01T08:29:21.989Z,2.5
2022-12-01T08:30:25.829Z,2.5
2022-12-01T08:31:28.841Z,2.5
2022-12-01T08:32:32.721Z,2.5
2022-12-01T08:33:35.812Z,2.5
2022-12-01T08:34:38.971Z,2.5
2022-12-01T08:35:41.458Z,2.6
2022-12-01T08:36:44.519Z,2.5
2022-12-01T08:37:47.376Z,2.5
2022-12-01T08:38:51.073Z,2.5
2022-12-01T08:39:53.552Z,2.5
2022-12-01T08:40:56.715Z,2.5
2022-12-01T08:41:59.230Z,2.5
2022-12-01T08:43:02.918Z,2.5
2022-12-01T08:44:05.764Z,2.5
2022-12-01T08:45:09.157Z,2.5
2022-12-01T08:46:13.241Z,2.5
2022-12-01T08:47:20.354Z,2.5
2022-12-01T08:48:23.477Z,2.6
2022-12-01T08:49:26.616Z,2.5
2022-12-01T08:50:29.810Z,2.5
2022-12-01T08:51:32.809Z,2.5
2022-12-01T08:52:35.859Z,2.5
2022-12-01T08:53:47.165Z,2.5
2022-12-01T08:54:51.066Z,2.5
2022-12-01T08:55:53.770Z,2.5
2022-12-01T08:56:57.100Z,2.5
2022-12-01T08:58:00.165Z,2.5
2022-12-01T08:59:03.219Z,2.5
2022-12-01T09:00:06.085Z,2.5
2022-12-01T09:01:09.479Z,2.5
2022-12-01T09:02:13.798Z,2.5
2022-12-01T09:03:16.166Z,2.5
2022-12-01T09:04:18.693Z,2.5
2022-12-01T09:05:21.570Z,2.5
2022-12-01T09:06:25.274Z,2.5
2022-12-01T09:07:29.420Z,2.5
2022-12-01T09:08:32.207Z,2.5
2022-12-01T09:09:36.189Z,2.5
2022-12-01T09:10:38.691Z,2.5
2022-12-01T09:11:41.470Z,2.5
2022-12-01T09:12:44.552Z,2.5
2022-12-01T09:13:56.300Z,2.5
2022-12-01T09:14:59.405Z,2.5
2022-12-01T09:16:03.187Z,2.5
2022-12-01T09:17:06.690Z,2.5
2022-12-01T09:18:10.531Z,2.5
2022-12-01T09:19:25.817Z,2.5
2022-12-01T09:20:28.679Z,2.5
2022-12-01T09:21:31.841Z,2.5
2022-12-01T09:22:35.559Z,2.5
2022-12-01T09:23:38.595Z,2.5
2022-12-01T09:24:41.652Z,2.5
2022-12-01T09:25:44.866Z,2.5
2022-12-01T09:26:47.844Z,2.5
2022-12-01T09:27:50.263Z,2.5
2022-12-01T09:28:53.693Z,2.5
2022-12-01T09:29:57.351Z,2.5
2022-12-01T09:31:00.809Z,2.5
2022-12-01T09:32:04.626Z,2.5
2022-12-01T09:33:08.366Z,2.5
2022-12-01T09:34:12.124Z,2.5
2022-12-01T09:35:16.884Z,2.5
2022-12-01T09:36:25.371Z,2.4
2022-12-01T09:37:28.436Z,2.5
2022-12-01T09:38:31.276Z,2.5
2022-12-01T09:39:34.406Z,2.5
2022-12-01T09:40:37.915Z,2.5
2022-12-01T09:41:41.298Z,2.5
2022-12-01T09:42:44.396Z,2.5
2022-12-01T09:43:46.981Z,2.5
2022-12-01T09:44:50.323Z,2.5
2022-12-01T09:45:53.780Z,2.5
2022-12-01T09:46:57.509Z,2.5
2022-12-01T09:48:00.716Z,2.5
2022-12-01T09:49:04.179Z,2.5
2022-12-01T09:50:08.226Z,2.5
2022-12-01T09:51:12.012Z,2.5
2022-12-01T09:52:15.447Z,2.5
2022-12-01T09:53:18.736Z,2.5
2022-12-01T09:54:22.058Z,2.5
2022-12-01T09:55:25.450Z,2.5
2022-12-01T09:56:28.590Z,2.5
2022-12-01T09:57:32.298Z,2.5
2022-12-01T09:58:34.592Z,2.5
2022-12-01T09:59:37.749Z,2.5
2022-12-01T10:00:41.232Z,2.5
2022-12-01T10:01:44.822Z,2.5
2022-12-01T10:02:47.994Z,2.4
2022-12-01T10:03:50.714Z,2.5
2022-12-01T10:04:54.549Z,2.5
2022-12-01T10:06:30.776Z,2.5
2022-12-01T10:07:34.686Z,2.5
2022-12-01T10:08:37.857Z,2.5
2022-12-01T10:09:40.095Z,2.5
2022-12-01T10:10:42.799Z,2.5
2022-12-01T10:11:45.525Z,2.5
2022-12-01T10:12:48.354Z,2.5
2022-12-01T10:13:52.342Z,2.6
2022-12-01T10:14:55.336Z,2.6
2022-12-01T10:15:59.506Z,2.6
2022-12-01T10:17:02.583Z,2.6
2022-12-01T10:18:05.661Z,2.6
2022-12-01T10:19:09.266Z,2.6
2022-12-01T10:20:12.653Z,2.6
2022-12-01T10:21:16.177Z,2.6
2022-12-01T10:22:18.942Z,2.6
2022-12-01T10:23:21.860Z,2.6
2022-12-01T10:24:24.984Z,2.6
2022-12-01T10:25:28.671Z,2.7
2022-12-01T10:26:31.801Z,2.7
2022-12-01T10:27:35.785Z,2.7
2022-12-01T10:28:39.104Z,2.7
2022-12-01T10:29:50.531Z,2.7
2022-12-01T10:30:54.785Z,2.8
2022-12-01T10:31:58.812Z,2.8
2022-12-01T10:33:02.623Z,2.8
2022-12-01T10:34:05.710Z,2.8
2022-12-01T10:35:08.211Z,2.7
2022-12-01T10:36:12.275Z,2.7
2022-12-01T10:37:16.455Z,2.7
2022-12-01T10:38:19.548Z,2.7
2022-12-01T10:39:22.901Z,2.7
2022-12-01T10:40:25.682Z,2.7
2022-12-01T10:41:29.085Z,2.7
2022-12-01T10:42:32.857Z,2.7
2022-12-01T10:43:36.565Z,2.8
2022-12-01T10:44:39.763Z,2.8
2022-12-01T10:45:43.253Z,2.8
2022-12-01T10:46:47.068Z,2.8
2022-12-01T10:47:49.577Z,2.8
2022-12-01T10:48:57.733Z,2.8
2022-12-01T10:50:00.508Z,2.8
2022-12-01T10:51:03.580Z,2.8
2022-12-01T10:52:06.371Z,2.8
2022-12-01T10:53:10.211Z,2.7
2022-12-01T10:54:13.294Z,2.7
2022-12-01T10:55:16.369Z,2.8
2022-12-01T10:56:19.263Z,2.8
2022-12-01T10:57:22.650Z,2.8
2022-12-01T10:58:25.975Z,2.8
2022-12-01T10:59:28.769Z,2.8
2022-12-01T11:01:03.451Z,2.8
2022-12-01T11:02:08.225Z,2.8
2022-12-01T11:03:21.684Z,2.7
2022-12-01T11:04:25.978Z,2.7
2022-12-01T11:05:29.023Z,2.7
2022-12-01T11:06:32.704Z,2.7
2022-12-01T11:07:36.622Z,2.7
2022-12-01T11:08:40.751Z,2.7
2022-12-01T11:09:44.111Z,2.7
2022-12-01T11:10:47.522Z,2.7
2022-12-01T11:11:50.579Z,2.7
2022-12-01T11:12:54.220Z,2.7
2022-12-01T11:13:57.647Z,2.7
2022-12-01T11:15:01.001Z,2.7
2022-12-01T11:16:04.793Z,2.7
2022-12-01T11:17:08.922Z,2.7
2022-12-01T11:18:11.959Z,2.7
2022-12-01T11:19:15.673Z,2.7
2022-12-01T11:20:24.256Z,2.7
2022-12-01T11:21:27.673Z,2.7
2022-12-01T11:22:30.456Z,2.7
2022-12-01T11:23:34.244Z,2.7
2022-12-01T11:24:38.282Z,2.7
2022-12-01T11:25:41.561Z,2.7
2022-12-01T11:26:44.606Z,2.7
2022-12-01T11:27:47.925Z,2.8
2022-12-01T11:28:50.977Z,2.8
2022-12-01T11:29:54.475Z,2.8
2022-12-01T11:30:59.046Z,2.8
2022-12-01T11:32:02.834Z,2.8
2022-12-01T11:33:06.530Z,2.8
2022-12-01T11:34:10.021Z,2.8
2022-12-01T11:35:13.264Z,2.8
2022-12-01T11:36:17.640Z,2.8
2022-12-01T11:37:20.603Z,2.8
2022-12-01T11:38:32.412Z,2.8
2022-12-01T11:39:36.492Z,2.8
2022-12-01T11:40:40.274Z,2.9
2022-12-01T11:41:43.882Z,2.9
2022-12-01T11:42:47.245Z,2.9
2022-12-01T11:44:51.217Z,3.1
2022-12-01T11:45:55.879Z,3.1
2022-12-01T11:47:25.965Z,3.1
2022-12-01T11:48:29.611Z,3
2022-12-01T11:49:32.967Z,3.1
2022-12-01T11:50:37.188Z,3
2022-12-01T11:51:41.789Z,3
2022-12-01T11:52:47.111Z,2.9
2022-12-01T11:53:51.336Z,2.9
2022-12-01T11:54:55.302Z,2.9
2022-12-01T11:55:59.149Z,2.9
2022-12-01T11:57:36.405Z,2.9
2022-12-01T11:58:40.260Z,2.8
2022-12-01T11:59:43.971Z,2.8
2022-12-01T12:00:46.799Z,2.8
2022-12-01T12:01:49.777Z,2.8
2022-12-01T12:02:53.304Z,2.8
2022-12-01T12:03:56.670Z,2.8
2022-12-01T12:05:01.551Z,2.9
2022-12-01T12:06:42.308Z,2.9
2022-12-01T12:07:47.471Z,2.9
2022-12-01T12:08:52.996Z,2.9
2022-12-01T12:09:56.908Z,2.9
2022-12-01T12:11:01.686Z,3
2022-12-01T12:12:07.061Z,3
2022-12-01T12:13:10.140Z,3
2022-12-01T12:14:14.092Z,3
2022-12-01T12:15:17.284Z,3.1
2022-12-01T12:16:20.442Z,3.1
2022-12-01T12:17:23.911Z,3.1
2022-12-01T12:18:27.642Z,3
2022-12-01T12:20:10.958Z,3.1
2022-12-01T12:21:16.448Z,3.1
2022-12-01T12:22:20.167Z,3.1
2022-12-01T12:23:23.541Z,3.1
2022-12-01T12:24:26.593Z,3.1
2022-12-01T12:25:29.129Z,3.1
2022-12-01T12:26:32.284Z,3.1
2022-12-01T12:27:36.041Z,3.1
2022-12-01T12:28:38.762Z,3.1
2022-12-01T12:29:41.461Z,3.1
2022-12-01T12:30:45.195Z,3.1
2022-12-01T12:31:48.724Z,3.1
2022-12-01T12:32:51.855Z,3.1
2022-12-01T12:33:55.011Z,3.1
2022-12-01T12:34:57.783Z,3
2022-12-01T12:36:01.142Z,3
2022-12-01T12:37:04.188Z,3
2022-12-01T12:38:07.301Z,3
2022-12-01T12:39:18.308Z,3
2022-12-01T12:40:21.564Z,3
2022-12-01T12:41:25.038Z,3
2022-12-01T12:42:27.528Z,3
2022-12-01T12:43:30.764Z,3
2022-12-01T12:44:39.321Z,3
2022-12-01T12:45:42.446Z,3
2022-12-01T12:46:46.058Z,3
2022-12-01T12:47:49.636Z,3
2022-12-01T12:49:22.245Z,3
2022-12-01T12:50:25.896Z,2.9
2022-12-01T12:51:29.028Z,3
2022-12-01T12:52:31.809Z,3
2022-12-01T12:53:34.223Z,3
2022-12-01T12:54:38.184Z,3
2022-12-01T12:55:42.012Z,3
2022-12-01T12:56:45.490Z,3
2022-12-01T12:57:48.950Z,3
2022-12-01T12:58:53.005Z,3
2022-12-01T12:59:56.061Z,3
2022-12-01T13:00:58.826Z,3
2022-12-01T13:02:01.965Z,3
2022-12-01T13:03:05.255Z,3
2022-12-01T13:04:08.992Z,3
2022-12-01T13:05:12.200Z,3
2022-12-01T13:06:14.973Z,3
2022-12-01T13:07:18.398Z,3
2022-12-01T13:08:21.167Z,3
2022-12-01T13:09:24.505Z,3
2022-12-01T13:10:27.574Z,3
2022-12-01T13:11:30.271Z,3
2022-12-01T13:12:33.598Z,3
2022-12-01T13:13:37.070Z,3
2022-12-01T13:14:40.812Z,3
2022-12-01T13:15:43.640Z,3
2022-12-01T13:16:47.388Z,3
2022-12-01T13:17:49.810Z,3
2022-12-01T13:18:52.865Z,3
2022-12-01T13:19:56.013Z,3
2022-12-01T13:20:59.114Z,2.9
2022-12-01T13:22:02.680Z,2.9
2022-12-01T13:23:06.841Z,2.9
2022-12-01T13:24:10.621Z,2.9
2022-12-01T13:25:13.525Z,2.9
2022-12-01T13:26:17.226Z,2.8
2022-12-01T13:27:20.639Z,2.8
2022-12-01T13:28:23.644Z,2.8
2022-12-01T13:29:26.929Z,2.8
2022-12-01T13:30:30.696Z,2.8
2022-12-01T13:31:34.247Z,2.8
2022-12-01T13:32:36.793Z,2.8
2022-12-01T13:33:39.605Z,2.8
2022-12-01T13:34:42.677Z,2.8
2022-12-01T13:35:45.098Z,2.8
2022-12-01T13:36:48.983Z,2.8
2022-12-01T13:37:51.951Z,2.8
2022-12-01T13:38:54.732Z,2.8
2022-12-01T13:39:57.604Z,2.7
2022-12-01T13:41:00.581Z,2.7
2022-12-01T13:42:03.939Z,2.7
2022-12-01T13:43:12.544Z,2.7
2022-12-01T13:44:21.608Z,2.8
2022-12-01T13:45:24.610Z,2.8
2022-12-01T13:46:28.762Z,2.7
2022-12-01T13:47:32.515Z,2.8
2022-12-01T13:48:35.326Z,2.8
2022-12-01T13:49:38.493Z,2.7
2022-12-01T13:50:41.073Z,2.8
2022-12-01T13:51:44.491Z,2.8
2022-12-01T13:52:47.253Z,2.8
2022-12-01T13:53:50.347Z,2.8
2022-12-01T13:54:53.395Z,2.8
2022-12-01T13:55:56.817Z,2.8
2022-12-01T13:57:00.001Z,2.7
2022-12-01T13:58:03.003Z,2.7
2022-12-01T13:59:06.401Z,2.7
2022-12-01T14:00:09.758Z,2.7
2022-12-01T14:01:13.687Z,2.7
2022-12-01T14:02:18.582Z,2.7
2022-12-01T14:03:22.409Z,2.7
2022-12-01T14:04:26.120Z,2.7
2022-12-01T14:05:29.179Z,2.7
2022-12-01T14:06:33.025Z,2.6
2022-12-01T14:07:37.190Z,2.5
2022-12-01T14:08:40.417Z,2.5
2022-12-01T14:09:44.248Z,2.5
2022-12-01T14:10:47.026Z,2.5
2022-12-01T14:11:49.795Z,2.6
2022-12-01T14:12:53.025Z,2.6
2022-12-01T14:13:56.464Z,2.5
2022-12-01T14:15:01.328Z,2.5
2022-12-01T14:16:05.184Z,2.5
2022-12-01T14:17:08.230Z,2.5
2022-12-01T14:18:12.033Z,2.5
2022-12-01T14:19:15.180Z,2.5
2022-12-01T14:20:18.615Z,2.6
2022-12-01T14:21:22.055Z,2.6
2022-12-01T14:22:26.221Z,2.6
2022-12-01T14:23:29.379Z,2.6
2022-12-01T14:24:32.739Z,2.6
2022-12-01T14:25:36.517Z,2.6
2022-12-01T14:26:46.620Z,2.6
2022-12-01T14:27:50.295Z,2.6
2022-12-01T14:28:53.488Z,2.6
2022-12-01T14:29:56.484Z,2.6
2022-12-01T14:31:00.270Z,2.5
2022-12-01T14:32:03.555Z,2.5
2022-12-01T14:33:06.804Z,2.5
2022-12-01T14:34:20.254Z,2.5
2022-12-01T14:35:23.229Z,2.5
2022-12-01T14:36:26.673Z,2.5
2022-12-01T14:37:29.722Z,2.5
2022-12-01T14:38:32.781Z,2.5
2022-12-01T14:39:36.118Z,2.5
2022-12-01T14:40:39.589Z,2.5
2022-12-01T14:41:42.920Z,2.4
2022-12-01T14:42:46.173Z,2.4
2022-12-01T14:43:49.573Z,2.4
2022-12-01T14:44:54.811Z,2.4
2022-12-01T14:45:58.205Z,2.4
2022-12-01T14:47:02.759Z,2.4
2022-12-01T14:48:05.765Z,2.4